Time;durP1;ratioP1;P1;durP2;ratioP2;P2;SDS_P1;SDS_P2;PMS_P1;PMS_P2;Temp;Humidity;BMP_temperature;BMP_pressure;BME280_temperature;BME280_humidity;BME280_pressure;Samples;Min_cycle;Max_cycle;Signal;HPM_P1;HPM_P2
2023/06/05 00:00:11;;;;;;;4.00;1.70;;;;;;;17.32;44.88;99556.44;335249;28;16310;-78
2023/06/05 00:00:24;;;;;;;4.65;1.70;;;;;;;17.32;44.43;99551.19;338091;28;5559;-78
2023/06/05 00:00:36;;;;;;;3.30;1.75;;;;;;;17.33;45.31;99553.72;335092;28;9578;-78
2023/06/05 00:00:48;;;;;;;3.60;1.88;;;;;;;17.31;45.61;99565.28;338446;28;5417;-78
2023/06/05 00:01:00;;;;;;;3.40;1.90;;;;;;;17.32;45.60;99561.69;338230;28;4509;-78
2023/06/05 00:01:13;;;;;;;2.25;1.90;;;;;;;17.32;45.46;99556.44;333868;28;18155;-78
2023/06/05 00:01:25;;;;;;;2.67;2.00;;;;;;;17.33;45.41;99552.91;336646;28;5089;-78
2023/06/05 00:01:37;;;;;;;2.75;1.90;;;;;;;17.35;44.93;99566.78;333823;28;17854;-78
2023/06/05 00:01:50;;;;;;;3.30;1.85;;;;;;;17.35;44.81;99561.53;337039;28;4520;-78
2023/06/05 00:02:05;;;;;;;4.35;1.90;;;;;;;17.35;45.01;99561.53;334127;28;16776;-78
2023/06/05 00:02:17;;;;;;;3.60;1.85;;;;;;;17.30;46.23;99558.31;333956;28;18770;-78
2023/06/05 00:02:29;;;;;;;3.78;1.95;;;;;;;17.31;46.00;99565.28;337236;28;5203;-78
2023/06/05 00:02:41;;;;;;;2.58;2.00;;;;;;;17.30;46.95;99558.31;334715;28;10223;-78
2023/06/05 00:02:53;;;;;;;2.53;1.73;;;;;;;17.32;46.22;99561.69;338091;28;4652;-78
2023/06/05 00:03:05;;;;;;;2.50;1.70;;;;;;;17.33;46.41;99558.16;338234;28;4617;-78
2023/06/05 00:03:17;;;;;;;2.50;1.77;;;;;;;17.33;46.47;99568.66;335643;28;17974;-78
2023/06/05 00:03:30;;;;;;;2.35;1.80;;;;;;;17.36;46.38;99563.19;337575;28;5227;-78
2023/06/05 00:03:43;;;;;;;2.42;1.70;;;;;;;17.33;46.94;99552.91;335158;28;17753;-78
2023/06/05 00:03:55;;;;;;;2.15;1.70;;;;;;;17.32;46.77;99567.78;338088;28;5503;-78
2023/06/05 00:04:08;;;;;;;1.90;1.70;;;;;;;17.32;46.57;99556.44;336005;28;18056;-78
2023/06/05 00:04:20;;;;;;;2.53;1.80;;;;;;;17.35;46.00;99566.78;338813;28;4497;-78
2023/06/05 00:04:35;;;;;;;3.13;1.80;;;;;;;17.36;46.16;99573.72;335460;28;17779;-78
2023/06/05 00:04:48;;;;;;;3.05;1.65;;;;;;;17.38;45.32;99558.69;335263;28;18187;-78
2023/06/05 00:05:01;;;;;;;2.45;1.55;;;;;;;17.39;45.17;99568.28;338064;28;4555;-78
2023/06/05 00:05:15;;;;;;;2.35;1.67;;;;;;;17.41;45.39;99553.25;335759;28;17992;-78
2023/06/05 00:05:27;;;;;;;3.50;1.80;;;;;;;17.42;44.87;99562.81;335330;28;18717;-78
2023/06/05 00:05:39;;;;;;;3.90;1.85;;;;;;;17.43;44.72;99553.16;338533;28;4649;-79
2023/06/05 00:05:51;;;;;;;2.95;1.90;;;;;;;17.43;44.64;99559.25;335930;28;9129;-78
2023/06/05 00:06:03;;;;;;;3.42;1.90;;;;;;;17.42;44.44;99547.06;337676;28;5562;-78
2023/06/05 00:06:15;;;;;;;3.35;1.80;;;;;;;17.43;44.67;99558.44;336554;28;5256;-78
2023/06/05 00:06:27;;;;;;;3.38;1.88;;;;;;;17.40;44.73;99559.44;334295;28;18665;-78
2023/06/05 00:06:40;;;;;;;4.05;1.73;;;;;;;17.36;44.54;99564.06;336143;28;4523;-78
2023/06/05 00:06:52;;;;;;;3.13;1.80;;;;;;;17.35;44.89;99562.38;334372;28;16219;-78
2023/06/05 00:07:05;;;;;;;2.50;1.85;;;;;;;17.35;44.62;99557.09;337033;28;5453;-78
2023/06/05 00:07:17;;;;;;;2.85;1.90;;;;;;;17.36;45.99;99557.94;333618;28;19020;-78
2023/06/05 00:07:29;;;;;;;2.55;1.70;;;;;;;17.36;45.05;99553.56;336879;28;4864;-78
2023/06/05 00:07:41;;;;;;;2.10;1.58;;;;;;;17.37;45.25;99559.66;333780;28;17915;-78
2023/06/05 00:07:53;;;;;;;2.28;1.70;;;;;;;17.38;45.13;99556.06;336988;28;5313;-78
2023/06/05 00:08:05;;;;;;;2.47;1.80;;;;;;;17.40;44.74;99556.81;337526;28;4678;-78
2023/06/05 00:08:20;;;;;;;2.33;1.70;;;;;;;17.42;44.52;99557.56;335095;28;18502;-78
2023/06/05 00:08:32;;;;;;;2.60;1.60;;;;;;;17.41;44.93;99553.25;335511;28;17930;-78
2023/06/05 00:08:44;;;;;;;2.60;1.73;;;;;;;17.39;44.59;99557.75;338378;28;5775;-78
2023/06/05 00:08:57;;;;;;;2.25;1.77;;;;;;;17.36;45.41;99553.56;334009;28;16181;-78
2023/06/05 00:09:13;;;;;;;2.35;1.75;;;;;;;17.34;45.31;99559.81;335210;28;17794;-78
2023/06/05 00:09:26;;;;;;;2.40;1.77;;;;;;;17.33;44.97;99552.91;335611;28;18085;-78
2023/06/05 00:09:38;;;;;;;2.20;1.75;;;;;;;17.29;43.96;99559.28;336786;28;5018;-78
2023/06/05 00:09:50;;;;;;;2.00;1.73;;;;;;;17.28;44.03;99560.19;337445;28;4523;-78
2023/06/05 00:10:04;;;;;;;1.95;1.70;;;;;;;17.28;43.26;99560.19;335874;28;18333;-78
2023/06/05 00:10:16;;;;;;;2.33;1.73;;;;;;;17.30;44.43;99560.94;335459;28;15836;-78
2023/06/05 00:10:31;;;;;;;2.38;1.70;;;;;;;17.33;44.24;99553.72;337010;28;4692;-79
2023/06/05 00:10:43;;;;;;;2.10;1.67;;;;;;;17.35;44.01;99557.09;335744;28;17595;-78
2023/06/05 00:10:55;;;;;;;1.88;1.60;;;;;;;17.35;44.06;99558.91;338036;28;4527;-78
2023/06/05 00:11:07;;;;;;;1.87;1.60;;;;;;;17.33;45.02;99552.91;332589;28;17832;-78
2023/06/05 00:11:20;;;;;;;1.92;1.67;;;;;;;17.32;45.40;99557.28;337445;28;5157;-78
2023/06/05 00:11:32;;;;;;;2.30;1.63;;;;;;;17.33;45.07;99558.16;336764;28;18081;-78
2023/06/05 00:11:44;;;;;;;3.63;1.70;;;;;;;17.34;44.98;99558.06;338654;28;5583;-78
2023/06/05 00:11:56;;;;;;;3.55;1.80;;;;;;;17.35;45.11;99558.91;336717;28;19051;-78
2023/06/05 00:12:09;;;;;;;3.30;1.90;;;;;;;17.34;45.38;99554.56;338277;28;4510;-78
2023/06/05 00:12:21;;;;;;;2.10;1.80;;;;;;;17.36;45.27;99557.94;336645;28;5305;-78
2023/06/05 00:12:33;;;;;;;2.45;1.77;;;;;;;17.35;44.75;99556.28;336944;28;17603;-78
2023/06/05 00:12:45;;;;;;;2.65;1.75;;;;;;;17.31;43.87;99555.59;338142;28;4678;-78
2023/06/05 00:12:57;;;;;;;2.90;1.80;;;;;;;17.33;44.05;99556.34;336753;28;17780;-78
2023/06/05 00:13:09;;;;;;;4.28;1.80;;;;;;;17.31;44.82;99555.59;339569;28;4520;-79
2023/06/05 00:13:21;;;;;;;4.05;1.83;;;;;;;17.32;44.77;99551.19;336563;28;18361;-78
2023/06/05 00:13:33;;;;;;;2.00;1.80;;;;;;;17.27;45.82;99559.38;338329;28;4471;-79
2023/06/05 00:13:46;;;;;;;1.95;1.70;;;;;;;17.27;45.62;99558.53;336267;28;4999;-78
2023/06/05 00:13:58;;;;;;;2.30;1.70;;;;;;;17.29;45.06;99556.66;334179;28;18073;-78
2023/06/05 00:14:10;;;;;;;2.97;1.67;;;;;;;17.29;45.30;99554.88;336669;28;4814;-78
2023/06/05 00:14:22;;;;;;;2.72;1.60;;;;;;;17.32;45.26;99557.28;334621;28;8050;-78
2023/06/05 00:14:34;;;;;;;2.40;1.70;;;;;;;17.31;45.44;99557.41;335819;28;5103;-78
2023/06/05 00:14:46;;;;;;;3.03;1.83;;;;;;;17.33;44.57;99558.16;335394;28;19091;-78
2023/06/05 00:14:59;;;;;;;3.78;1.83;;;;;;;17.34;44.18;99565.06;338420;28;4723;-78
2023/06/05 00:15:11;;;;;;;3.50;1.83;;;;;;;17.38;44.47;99556.06;335991;28;15859;-78
2023/06/05 00:15:23;;;;;;;3.75;1.70;;;;;;;17.37;44.56;99559.66;337951;28;5246;-78
2023/06/05 00:15:37;;;;;;;2.97;1.70;;;;;;;17.37;44.52;99564.91;338515;28;5315;-79
2023/06/05 00:15:50;;;;;;;2.35;1.70;;;;;;;17.40;44.79;99559.44;334364;28;17325;-78
2023/06/05 00:16:03;;;;;;;2.50;1.80;;;;;;;17.42;44.47;99551.47;335530;28;17997;-78
2023/06/05 00:16:16;;;;;;;3.03;1.95;;;;;;;17.43;44.67;99559.25;338211;28;5232;-79
2023/06/05 00:16:28;;;;;;;3.15;1.95;;;;;;;17.45;44.28;99556.53;334186;28;17834;-78
2023/06/05 00:16:40;;;;;;;2.78;1.80;;;;;;;17.45;44.27;99561.81;338186;28;4666;-79
2023/06/05 00:16:52;;;;;;;2.28;1.70;;;;;;;17.44;43.97;99560.94;335200;28;18296;-79
2023/06/05 00:17:07;;;;;;;2.33;1.80;;;;;;;17.43;43.92;99554.00;336934;28;5136;-79
2023/06/05 00:17:19;;;;;;;1.90;1.70;;;;;;;17.42;45.24;99552.31;334097;28;17970;-78
2023/06/05 00:17:32;;;;;;;2.28;1.70;;;;;;;17.43;44.33;99556.63;332948;29;9433;-79
2023/06/05 00:17:45;;;;;;;2.47;1.70;;;;;;;17.40;45.14;99559.44;336204;28;4570;-79
2023/06/05 00:17:57;;;;;;;2.53;1.73;;;;;;;17.40;45.12;99556.81;334246;28;17905;-79
2023/06/05 00:18:11;;;;;;;2.47;1.80;;;;;;;17.37;45.38;99557.84;334125;28;8349;-79
2023/06/05 00:18:24;;;;;;;2.63;1.80;;;;;;;17.40;45.49;99556.81;336465;28;5247;-78
2023/06/05 00:18:36;;;;;;;2.70;1.90;;;;;;;17.40;45.26;99553.34;335254;28;9922;-78
2023/06/05 00:18:48;;;;;;;2.00;1.70;;;;;;;17.42;44.97;99554.94;338081;28;4590;-78
2023/06/05 00:19:02;;;;;;;2.78;1.60;;;;;;;17.43;44.48;99554.00;338057;28;5167;-79
2023/06/05 00:19:14;;;;;;;2.97;1.63;;;;;;;17.43;44.16;99556.63;335016;28;18426;-79
2023/06/05 00:19:26;;;;;;;2.70;1.67;;;;;;;17.42;44.04;99554.94;335729;28;16507;-78
2023/06/05 00:19:38;;;;;;;2.55;1.70;;;;;;;17.41;43.90;99561.13;337131;28;4538;-79
2023/06/05 00:19:50;;;;;;;2.17;1.70;;;;;;;17.37;44.58;99554.38;336444;28;4515;-79
2023/06/05 00:20:03;;;;;;;2.30;1.73;;;;;;;17.36;44.98;99553.56;334778;28;18042;-79
2023/06/05 00:20:15;;;;;;;2.58;1.70;;;;;;;17.36;44.51;99553.56;337312;28;5382;-78
2023/06/05 00:20:27;;;;;;;3.75;1.63;;;;;;;17.31;45.07;99560.03;334349;28;17979;-78
2023/06/05 00:20:40;;;;;;;3.30;1.50;;;;;;;17.31;45.36;99555.59;338435;28;5215;-78
2023/06/05 00:20:52;;;;;;;2.58;1.58;;;;;;;17.30;45.10;99553.91;334390;28;17689;-78
2023/06/05 00:21:04;;;;;;;2.60;1.67;;;;;;;17.29;45.32;99551.41;337727;28;4643;-78
2023/06/05 00:21:16;;;;;;;2.85;1.80;;;;;;;17.29;45.46;99556.66;338389;28;6762;-78
2023/06/05 00:21:28;;;;;;;2.63;1.80;;;;;;;17.31;45.09;99554.78;335486;28;17892;-78
2023/06/05 00:21:40;;;;;;;2.50;1.70;;;;;;;17.28;45.51;99555.78;338248;28;4965;-78
2023/06/05 00:21:52;;;;;;;2.47;1.63;;;;;;;17.29;45.38;99561.91;334413;28;19274;-78
2023/06/05 00:22:04;;;;;;;2.50;1.65;;;;;;;17.29;45.05;99556.66;336816;28;5423;-78
2023/06/05 00:22:16;;;;;;;2.55;1.67;;;;;;;17.31;46.03;99560.03;334741;28;17795;-77
2023/06/05 00:22:31;;;;;;;2.50;1.70;;;;;;;17.31;45.06;99560.03;337516;28;4502;-78
2023/06/05 00:22:47;;;;;;;2.53;1.65;;;;;;;17.33;45.44;99558.16;335258;28;17865;-77
2023/06/05 00:22:59;;;;;;;2.30;1.67;;;;;;;17.37;44.91;99559.66;333356;29;18839;-78
2023/06/05 00:23:11;;;;;;;2.05;1.50;;;;;;;17.37;45.02;99554.38;335721;29;4729;-78
2023/06/05 00:23:23;;;;;;;2.38;1.50;;;;;;;17.37;44.53;99554.38;334136;28;18496;-78
2023/06/05 00:23:35;;;;;;;3.58;1.60;;;;;;;17.34;45.99;99554.56;337377;28;5166;-78
2023/06/05 00:23:47;;;;;;;3.88;1.67;;;;;;;17.32;45.62;99556.44;335612;28;4880;-78
2023/06/05 00:23:59;;;;;;;2.67;1.60;;;;;;;17.33;45.49;99555.53;337917;28;4570;-78
2023/06/05 00:24:11;;;;;;;2.55;1.55;;;;;;;17.33;45.61;99555.53;335517;28;9243;-78
2023/06/05 00:24:23;;;;;;;2.90;1.58;;;;;;;17.36;45.36;99553.56;338065;28;5362;-78
2023/06/05 00:24:35;;;;;;;2.60;1.55;;;;;;;17.38;44.83;99561.31;337625;28;4780;-78
2023/06/05 00:24:47;;;;;;;2.30;1.60;;;;;;;17.39;44.77;99557.75;334717;28;9213;-78
2023/06/05 00:24:59;;;;;;;2.55;1.73;;;;;;;17.41;44.30;99550.63;338866;28;5037;-78
2023/06/05 00:25:11;;;;;;;4.13;1.88;;;;;;;17.42;44.21;99554.09;337987;28;6201;-78
2023/06/05 00:25:24;;;;;;;3.90;1.77;;;;;;;17.39;44.45;99557.75;340918;28;4501;-78
2023/06/05 00:25:36;;;;;;;2.90;1.60;;;;;;;17.40;44.59;99553.34;341084;28;4485;-78
2023/06/05 00:25:48;;;;;;;2.10;1.50;;;;;;;17.38;45.38;99558.69;336666;28;17677;-78
2023/06/05 00:26:00;;;;;;;2.10;1.58;;;;;;;17.35;45.75;99556.28;339704;28;4513;-78
2023/06/05 00:26:12;;;;;;;2.38;1.70;;;;;;;17.29;45.70;99552.22;335634;28;17907;-78
2023/06/05 00:26:24;;;;;;;3.00;1.77;;;;;;;17.27;44.76;99559.38;337226;28;4662;-78
2023/06/05 00:26:36;;;;;;;2.88;1.70;;;;;;;17.28;44.95;99550.53;335048;28;8484;-78
2023/06/05 00:26:48;;;;;;;3.75;1.73;;;;;;;17.26;45.88;99557.66;337276;28;5242;-78
2023/06/05 00:27:00;;;;;;;4.00;1.80;;;;;;;17.29;45.14;99556.66;336699;28;4620;-78
2023/06/05 00:27:12;;;;;;;3.90;1.90;;;;;;;17.27;45.56;99554.13;335719;28;18175;-78
2023/06/05 00:27:24;;;;;;;3.75;1.83;;;;;;;17.30;45.04;99553.06;337208;28;4644;-78
2023/06/05 00:27:36;;;;;;;4.00;1.80;;;;;;;17.31;44.91;99560.03;334344;28;9671;-78
2023/06/05 00:27:48;;;;;;;3.50;1.70;;;;;;;17.31;44.84;99560.03;337474;28;4673;-79
2023/06/05 00:28:00;;;;;;;2.28;1.70;;;;;;;17.30;45.02;99553.06;337294;28;4583;-78
2023/06/05 00:28:12;;;;;;;3.33;1.77;;;;;;;17.27;44.87;99554.13;332595;29;17939;-78
2023/06/05 00:28:25;;;;;;;3.85;1.80;;;;;;;17.29;44.92;99551.41;336150;28;4592;-78
2023/06/05 00:28:38;;;;;;;4.57;1.77;;;;;;;17.30;44.97;99553.06;334064;28;18090;-78
2023/06/05 00:28:50;;;;;;;4.57;1.85;;;;;;;17.30;44.90;99553.91;335317;28;5233;-78
2023/06/05 00:29:02;;;;;;;4.15;1.77;;;;;;;17.31;44.80;99549.53;332892;28;18279;-78
2023/06/05 00:29:14;;;;;;;3.75;1.60;;;;;;;17.30;45.63;99553.91;335599;28;5412;-78
2023/06/05 00:29:27;;;;;;;2.47;1.90;;;;;;;17.30;46.38;99548.66;334134;28;17140;-78
2023/06/05 00:29:39;;;;;;;2.08;1.73;;;;;;;17.30;46.40;99558.31;337511;28;4552;-78
2023/06/05 00:29:51;;;;;;;1.60;1.50;;;;;;;17.32;45.15;99545.94;333396;28;9944;-78
2023/06/05 00:30:03;;;;;;;1.75;1.52;;;;;;;17.31;45.06;99552.16;336087;28;18415;-78
2023/06/05 00:30:15;;;;;;;2.00;1.60;;;;;;;17.31;44.86;99549.53;337635;28;5275;-78
2023/06/05 00:30:27;;;;;;;2.55;1.60;;;;;;;17.30;45.40;99547.81;335377;28;17953;-78
2023/06/05 00:30:39;;;;;;;2.33;1.58;;;;;;;17.30;45.41;99553.06;338760;28;4675;-78
2023/06/05 00:30:51;;;;;;;2.35;1.60;;;;;;;17.30;45.55;99547.81;336157;28;9196;-79
2023/06/05 00:31:03;;;;;;;2.28;1.70;;;;;;;17.32;45.11;99551.19;338772;28;4554;-78
2023/06/05 00:31:18;;;;;;;1.88;1.50;;;;;;;17.31;45.57;99552.97;333909;28;17825;-78
2023/06/05 00:31:32;;;;;;;1.92;1.50;;;;;;;17.29;46.24;99551.41;337381;28;4542;-78
2023/06/05 00:31:45;;;;;;;2.50;1.60;;;;;;;17.26;46.43;99551.56;335084;28;18063;-78
2023/06/05 00:31:58;;;;;;;3.47;1.60;;;;;;;17.27;45.49;99561.16;336500;28;18235;-78
2023/06/05 00:32:10;;;;;;;3.30;1.58;;;;;;;17.27;45.28;99553.28;339893;28;5177;-78
2023/06/05 00:32:22;;;;;;;2.47;1.60;;;;;;;17.25;45.82;99549.91;337104;28;18486;-78
2023/06/05 00:32:34;;;;;;;1.88;1.60;;;;;;;17.25;45.76;99555.16;338347;28;4606;-78
2023/06/05 00:32:46;;;;;;;2.00;1.70;;;;;;;17.24;46.40;99553.44;335618;28;4682;-78
2023/06/05 00:32:58;;;;;;;2.20;1.80;;;;;;;17.23;45.70;99549.16;335439;28;18263;-78
2023/06/05 00:33:10;;;;;;;2.67;1.80;;;;;;;17.24;46.13;99559.53;336522;28;4581;-78
2023/06/05 00:33:22;;;;;;;3.17;1.73;;;;;;;17.25;45.56;99556.00;334359;28;17983;-78
2023/06/05 00:33:34;;;;;;;2.90;1.63;;;;;;;17.25;45.26;99550.75;335879;28;4577;-78
2023/06/05 00:33:46;;;;;;;1.80;1.50;;;;;;;17.27;45.11;99550.66;335548;29;8749;-78
2023/06/05 00:33:58;;;;;;;2.05;1.50;;;;;;;17.26;44.88;99551.56;333798;28;16982;-78
2023/06/05 00:34:10;;;;;;;2.00;1.50;;;;;;;17.22;45.82;99550.06;337077;28;4502;-78
2023/06/05 00:34:22;;;;;;;1.88;1.60;;;;;;;17.22;45.19;99545.66;334367;28;18073;-78
2023/06/05 00:34:34;;;;;;;1.70;1.50;;;;;;;17.22;45.08;99550.06;337304;28;5540;-78
2023/06/05 00:34:46;;;;;;;2.13;1.67;;;;;;;17.24;44.98;99553.44;334453;28;5046;-78
2023/06/05 00:34:58;;;;;;;3.25;1.70;;;;;;;17.26;44.78;99551.56;335197;29;4637;-78
2023/06/05 00:35:10;;;;;;;3.38;1.80;;;;;;;17.24;44.86;99542.94;335298;29;6002;-78
2023/06/05 00:35:22;;;;;;;3.10;1.67;;;;;;;17.16;44.96;99554.78;333593;28;17893;-78
2023/06/05 00:35:34;;;;;;;2.37;1.70;;;;;;;17.11;44.62;99554.22;337313;28;4529;-78
2023/06/05 00:35:46;;;;;;;2.30;1.52;;;;;;;17.11;44.98;99551.59;333804;28;7959;-78
2023/06/05 00:35:58;;;;;;;2.22;1.52;;;;;;;17.12;44.81;99555.03;337008;28;5710;-78
2023/06/05 00:36:11;;;;;;;2.33;1.65;;;;;;;17.12;44.42;99550.66;336879;28;5120;-78
2023/06/05 00:36:23;;;;;;;2.63;1.70;;;;;;;17.12;44.54;99550.66;333841;28;18627;-78
2023/06/05 00:36:36;;;;;;;2.60;1.60;;;;;;;17.13;44.64;99549.72;335565;28;5270;-78
2023/06/05 00:36:50;;;;;;;2.83;1.60;;;;;;;17.10;45.22;99552.53;333940;28;17913;-78
2023/06/05 00:37:03;;;;;;;2.80;1.50;;;;;;;17.11;44.62;99551.59;333969;28;17952;-78
2023/06/05 00:37:15;;;;;;;2.72;1.50;;;;;;;17.11;44.42;99554.22;336828;28;4717;-78
2023/06/05 00:37:27;;;;;;;2.67;1.55;;;;;;;17.11;44.17;99548.97;334631;28;8103;-78
2023/06/05 00:37:39;;;;;;;2.58;1.67;;;;;;;17.08;45.02;99557.03;335650;29;4805;-77
2023/06/05 00:37:51;;;;;;;2.35;1.60;;;;;;;17.02;44.74;99560.00;333947;28;5146;-77
2023/06/05 00:38:03;;;;;;;1.80;1.58;;;;;;;16.99;44.79;99549.72;337630;28;5300;-77
2023/06/05 00:38:15;;;;;;;2.25;1.60;;;;;;;16.99;44.36;99554.97;340401;28;4812;-77
2023/06/05 00:38:27;;;;;;;3.80;1.60;;;;;;;17.03;44.41;99561.72;335978;28;18003;-78
2023/06/05 00:38:40;;;;;;;3.53;1.60;;;;;;;16.97;45.55;99551.59;338909;28;4692;-78
2023/06/05 00:38:52;;;;;;;3.42;1.73;;;;;;;16.97;45.43;99555.03;335822;28;10327;-78
2023/06/05 00:39:04;;;;;;;2.10;1.75;;;;;;;16.99;45.27;99554.97;340595;28;4520;-78
2023/06/05 00:39:18;;;;;;;2.13;1.77;;;;;;;16.99;44.89;99549.72;339577;28;10054;-78
2023/06/05 00:39:30;;;;;;;3.00;1.80;;;;;;;16.98;44.82;99550.63;338718;28;17923;-78
2023/06/05 00:39:42;;;;;;;2.83;1.80;;;;;;;17.00;45.04;99551.38;335752;28;18298;-78
2023/06/05 00:39:54;;;;;;;1.77;1.58;;;;;;;17.03;44.84;99555.63;336824;28;5763;-78
2023/06/05 00:40:07;;;;;;;1.75;1.50;;;;;;;17.07;44.60;99557.13;335410;28;4706;-77
2023/06/05 00:40:19;;;;;;;2.80;1.60;;;;;;;17.08;44.97;99559.66;338246;28;4655;-77
2023/06/05 00:40:31;;;;;;;2.65;1.48;;;;;;;17.05;45.15;99554.59;338437;28;5571;-77
2023/06/05 00:40:43;;;;;;;2.72;1.48;;;;;;;17.03;44.95;99555.63;334509;28;17681;-78
2023/06/05 00:40:55;;;;;;;2.35;1.60;;;;;;;17.02;44.74;99554.75;338429;28;5553;-78
2023/06/05 00:41:07;;;;;;;2.35;1.80;;;;;;;17.02;44.90;99559.16;334074;28;17426;-78
2023/06/05 00:41:19;;;;;;;2.55;1.90;;;;;;;17.03;44.98;99556.47;336122;28;5546;-78
2023/06/05 00:41:31;;;;;;;2.80;1.90;;;;;;;17.04;44.83;99560.75;335051;29;4947;-78
2023/06/05 00:41:44;;;;;;;2.47;1.70;;;;;;;17.04;44.69;99558.13;334534;28;17675;-78
2023/06/05 00:41:56;;;;;;;2.00;1.50;;;;;;;17.01;44.89;99558.34;338131;28;6752;-78
2023/06/05 00:42:11;;;;;;;2.60;1.50;;;;;;;16.99;44.98;99559.38;335722;28;19055;-78
2023/06/05 00:42:23;;;;;;;2.42;1.50;;;;;;;16.96;46.08;99555.13;335302;28;17547;-78
2023/06/05 00:42:35;;;;;;;2.17;1.58;;;;;;;16.94;46.77;99557.00;338245;28;4554;-78
2023/06/05 00:42:47;;;;;;;2.13;1.60;;;;;;;16.96;45.50;99561.25;335240;28;18019;-78
2023/06/05 00:42:59;;;;;;;2.70;1.90;;;;;;;16.98;45.17;99550.63;338164;28;4905;-78
2023/06/05 00:43:11;;;;;;;2.67;1.83;;;;;;;16.96;45.65;99550.75;338581;28;4550;-78
2023/06/05 00:43:23;;;;;;;2.47;1.90;;;;;;;16.95;45.38;99553.47;335384;28;18143;-78
2023/06/05 00:43:36;;;;;;;2.00;1.55;;;;;;;16.95;45.46;99553.47;337674;28;4723;-78
2023/06/05 00:43:48;;;;;;;2.78;1.60;;;;;;;16.94;45.17;99552.63;332082;28;17973;-78
2023/06/05 00:44:00;;;;;;;3.00;1.52;;;;;;;16.93;44.99;99556.16;332228;28;6782;-78
2023/06/05 00:44:12;;;;;;;3.00;1.50;;;;;;;16.93;45.68;99550.09;332335;28;18151;-78
2023/06/05 00:44:24;;;;;;;2.30;1.55;;;;;;;16.93;46.42;99550.09;334352;28;5896;-78
2023/06/05 00:44:36;;;;;;;2.83;1.70;;;;;;;16.96;45.40;99553.38;334797;28;4603;-78
2023/06/05 00:44:48;;;;;;;2.78;1.70;;;;;;;16.97;45.31;99546.34;334535;28;17941;-78
2023/06/05 00:45:00;;;;;;;2.45;1.65;;;;;;;16.97;45.17;99557.66;335652;28;4688;-78
2023/06/05 00:45:12;;;;;;;2.45;1.42;;;;;;;16.92;45.66;99554.50;332437;28;18119;-78
2023/06/05 00:45:24;;;;;;;2.38;1.33;;;;;;;16.96;45.30;99563.00;334602;28;5654;-78
2023/06/05 00:45:36;;;;;;;2.72;1.42;;;;;;;16.96;45.34;99549.88;333286;28;4807;-78
2023/06/05 00:45:55;;;;;;;2.60;1.50;;;;;;;16.97;45.28;99551.59;336023;28;5058;-78
2023/06/05 00:46:11;;;;;;;2.25;1.58;;;;;;;17.03;45.18;99551.22;334590;28;17876;-78
2023/06/05 00:46:23;;;;;;;2.05;1.70;;;;;;;17.02;44.76;99549.50;334382;28;16369;-78
2023/06/05 00:46:36;;;;;;;2.07;1.70;;;;;;;16.97;44.67;99556.84;336592;28;5393;-78
2023/06/05 00:46:50;;;;;;;3.17;1.70;;;;;;;16.95;45.01;99548.22;335043;28;18110;-78
2023/06/05 00:47:04;;;;;;;3.20;1.60;;;;;;;16.96;45.05;99545.50;335559;28;17790;-78
2023/06/05 00:47:16;;;;;;;2.20;1.50;;;;;;;16.94;46.19;99554.38;338238;28;5906;-78
2023/06/05 00:47:29;;;;;;;1.80;1.50;;;;;;;16.96;45.70;99555.13;335204;28;17937;-78
2023/06/05 00:47:41;;;;;;;1.83;1.55;;;;;;;16.98;45.27;99553.25;338934;28;4540;-78
2023/06/05 00:47:53;;;;;;;2.15;1.60;;;;;;;16.99;45.07;99554.97;336286;28;19210;-78
2023/06/05 00:48:06;;;;;;;2.42;1.70;;;;;;;17.01;44.63;99557.50;338162;28;5313;-78
2023/06/05 00:48:19;;;;;;;2.28;1.60;;;;;;;16.99;44.80;99552.34;335174;28;18028;-78
2023/06/05 00:48:32;;;;;;;2.55;1.80;;;;;;;17.01;44.49;99547.84;337136;28;5317;-78
2023/06/05 00:48:48;;;;;;;3.05;1.90;;;;;;;17.02;44.50;99546.03;334384;28;17608;-78
2023/06/05 00:49:00;;;;;;;2.60;1.70;;;;;;;17.02;45.09;99549.50;335436;28;17917;-78
2023/06/05 00:49:12;;;;;;;2.53;1.60;;;;;;;17.01;44.64;99550.47;334543;28;18012;-78
2023/06/05 00:49:25;;;;;;;3.15;1.65;;;;;;;16.97;44.61;99556.84;337810;28;5106;-78
2023/06/05 00:49:37;;;;;;;3.70;1.75;;;;;;;16.94;45.61;99550.00;334646;28;16012;-78
2023/06/05 00:49:52;;;;;;;4.95;1.90;;;;;;;16.95;45.16;99553.47;338048;28;5096;-78
2023/06/05 00:50:07;;;;;;;5.10;1.90;;;;;;;16.96;45.48;99556.00;335707;28;18105;-78
2023/06/05 00:50:21;;;;;;;4.82;1.80;;;;;;;16.97;45.30;99556.84;336416;28;18763;-78
2023/06/05 00:50:34;;;;;;;3.85;1.65;;;;;;;16.95;46.36;99550.84;333853;28;17856;-78
2023/06/05 00:50:46;;;;;;;2.50;1.63;;;;;;;16.99;45.62;99548.88;337759;28;4691;-78
2023/06/05 00:50:58;;;;;;;2.70;1.75;;;;;;;16.99;45.32;99554.97;334588;28;18036;-78
2023/06/05 00:51:14;;;;;;;2.97;1.85;;;;;;;16.99;45.39;99552.34;336448;28;4504;-78
2023/06/05 00:51:26;;;;;;;2.50;1.60;;;;;;;17.01;45.09;99550.47;333597;28;18463;-78
2023/06/05 00:51:42;;;;;;;3.53;1.60;;;;;;;17.03;44.53;99545.97;332861;28;18115;-78
2023/06/05 00:51:54;;;;;;;4.20;1.70;;;;;;;17.02;44.55;99549.50;332915;28;17842;-78
2023/06/05 00:52:07;;;;;;;3.38;1.63;;;;;;;16.98;45.12;99553.25;335483;28;5164;-78
2023/06/05 00:52:19;;;;;;;3.30;1.60;;;;;;;16.99;45.06;99554.97;331525;28;18210;-79
2023/06/05 00:52:33;;;;;;;3.38;1.55;;;;;;;17.03;45.04;99555.63;335381;29;4684;-78
2023/06/05 00:52:46;;;;;;;2.95;1.65;;;;;;;17.05;44.85;99553.75;332820;28;18852;-79
2023/06/05 00:53:01;;;;;;;2.08;1.60;;;;;;;17.05;44.39;99551.97;334564;28;18423;-78
2023/06/05 00:53:13;;;;;;;2.00;1.40;;;;;;;17.06;44.67;99550.16;334102;28;18580;-78
2023/06/05 00:53:26;;;;;;;2.38;1.50;;;;;;;17.05;45.26;99554.59;336776;28;4667;-79
2023/06/05 00:53:39;;;;;;;3.03;1.50;;;;;;;17.03;45.24;99556.47;335782;28;5713;-78
2023/06/05 00:53:51;;;;;;;2.58;1.50;;;;;;;17.03;45.16;99550.38;337793;28;4639;-78
2023/06/05 00:54:04;;;;;;;2.40;1.50;;;;;;;16.97;45.32;99554.22;335316;28;17449;-78
2023/06/05 00:54:17;;;;;;;1.90;1.60;;;;;;;16.95;45.46;99550.84;338057;28;4584;-78
2023/06/05 00:54:29;;;;;;;2.67;1.63;;;;;;;16.96;45.43;99549.88;336879;28;17984;-78
2023/06/05 00:54:42;;;;;;;2.47;1.50;;;;;;;16.93;45.68;99555.34;339292;28;5515;-78
2023/06/05 00:54:54;;;;;;;3.20;1.50;;;;;;;16.96;45.80;99557.75;335717;28;18156;-78
2023/06/05 00:55:06;;;;;;;2.75;1.48;;;;;;;16.95;45.80;99550.84;338335;28;5132;-78
2023/06/05 00:55:19;;;;;;;2.42;1.50;;;;;;;16.96;46.14;99556.00;334532;28;18206;-78
2023/06/05 00:55:36;;;;;;;2.78;1.52;;;;;;;16.97;45.57;99548.97;337298;28;5005;-78
2023/06/05 00:55:48;;;;;;;2.67;1.67;;;;;;;16.99;44.96;99551.50;335251;28;18422;-78
2023/06/05 00:56:01;;;;;;;2.35;1.75;;;;;;;17.01;46.14;99550.47;338060;28;5009;-78
2023/06/05 00:56:13;;;;;;;2.53;1.80;;;;;;;17.02;45.67;99554.75;335933;28;17386;-78
2023/06/05 00:56:25;;;;;;;2.10;1.65;;;;;;;17.02;46.37;99554.75;339375;28;4668;-78
2023/06/05 00:56:39;;;;;;;1.95;1.48;;;;;;;17.04;45.62;99552.88;334967;28;5464;-78
2023/06/05 00:56:52;;;;;;;2.47;1.50;;;;;;;17.06;45.56;99552.78;338204;28;4847;-78
2023/06/05 00:57:07;;;;;;;2.58;1.50;;;;;;;17.07;45.31;99552.72;335175;28;18957;-78
2023/06/05 00:57:20;;;;;;;2.45;1.50;;;;;;;17.08;45.28;99558.78;334929;28;16232;-78
2023/06/05 00:57:34;;;;;;;4.25;1.60;;;;;;;17.06;44.84;99551.00;335859;28;16479;-78
2023/06/05 00:57:46;;;;;;;4.50;1.55;;;;;;;17.07;44.85;99552.72;338016;28;5219;-78
2023/06/05 00:58:01;;;;;;;3.60;1.58;;;;;;;17.07;44.89;99552.72;334554;28;18122;-78
2023/06/05 00:58:15;;;;;;;1.90;1.58;;;;;;;17.09;44.52;99552.63;334047;28;17278;-78
2023/06/05 00:58:30;;;;;;;2.63;1.70;;;;;;;17.08;44.91;99558.78;334424;28;4723;-78
2023/06/05 00:58:42;;;;;;;3.22;1.77;;;;;;;17.05;44.19;99557.22;334603;28;8819;-78
2023/06/05 00:58:54;;;;;;;3.15;1.70;;;;;;;17.03;45.16;99560.88;337463;28;5379;-78
2023/06/05 00:59:07;;;;;;;3.17;1.70;;;;;;;17.00;44.80;99559.25;338611;28;4535;-78
2023/06/05 00:59:20;;;;;;;3.33;1.70;;;;;;;17.01;44.54;99554.88;335232;28;16265;-78
2023/06/05 00:59:32;;;;;;;2.95;1.70;;;;;;;17.01;44.42;99558.34;335117;28;8848;-78
2023/06/05 00:59:44;;;;;;;2.63;1.73;;;;;;;17.01;45.20;99555.72;338411;28;4595;-78
2023/06/05 00:59:57;;;;;;;2.30;1.70;;;;;;;17.01;45.61;99550.47;336619;28;4536;-78
2023/06/05 01:00:12;;;;;;;2.40;1.65;;;;;;;17.00;45.52;99553.16;334589;28;16253;-79
2023/06/05 01:00:25;;;;;;;2.60;1.60;;;;;;;16.96;46.50;99555.13;334952;28;17982;-78